sensor_id;sensor_type;location;lat;lon;timestamp;pressure;altitude;pressure_sealevel;temperature;humidity
69630;BME280;56857;52.212;5.496;2023-12-22T00:02:22;100235.09;;;6.85;100.00
69630;BME280;56857;52.212;5.496;2023-12-22T00:04:47;100257.16;;;6.84;100.00
69630;BME280;56857;52.212;5.496;2023-12-22T00:07:12;100263.25;;;6.85;100.00
69630;BME280;56857;52.212;5.496;2023-12-22T00:09:38;100261.59;;;6.84;100.00
69630;BME280;56857;52.212;5.496;2023-12-22T00:12:04;100276.75;;;6.82;100.00
69630;BME280;56857;52.212;5.496;2023-12-22T00:14:29;100258.13;;;6.75;100.00
69630;BME280;56857;52.212;5.496;2023-12-22T00:16:54;100258.44;;;6.72;100.00
69630;BME280;56857;52.212;5.496;2023-12-22T00:19:20;100263.34;;;6.67;100.00
69630;BME280;56857;52.212;5.496;2023-12-22T00:21:45;100277.81;;;6.63;100.00
69630;BME280;56857;52.212;5.496;2023-12-22T00:24:10;100275.50;;;6.60;100.00
69630;BME280;56857;52.212;5.496;2023-12-22T00:26:35;100274.00;;;6.57;100.00
69630;BME280;56857;52.212;5.496;2023-12-22T00:29:01;100277.44;;;6.58;100.00
69630;BME280;56857;52.212;5.496;2023-12-22T00:31:26;100296.88;;;6.57;100.00
69630;BME280;56857;52.212;5.496;2023-12-22T00:33:51;100296.06;;;6.56;100.00
69630;BME280;56857;52.212;5.496;2023-12-22T00:36:17;100304.59;;;6.58;100.00
69630;BME280;56857;52.212;5.496;2023-12-22T00:38:42;100313.50;;;6.57;100.00
69630;BME280;56857;52.212;5.496;2023-12-22T00:41:07;100314.31;;;6.58;100.00
69630;BME280;56857;52.212;5.496;2023-12-22T00:43:33;100299.66;;;6.55;100.00
69630;BME280;56857;52.212;5.496;2023-12-22T00:45:58;100314.81;;;6.53;100.00
69630;BME280;56857;52.212;5.496;2023-12-22T00:48:23;100296.69;;;6.50;100.00
69630;BME280;56857;52.212;5.496;2023-12-22T00:50:48;100298.63;;;6.48;100.00
69630;BME280;56857;52.212;5.496;2023-12-22T00:53:14;100287.72;;;6.43;100.00
69630;BME280;56857;52.212;5.496;2023-12-22T00:55:39;100286.25;;;6.40;100.00
69630;BME280;56857;52.212;5.496;2023-12-22T00:58:05;100302.38;;;6.37;100.00
69630;BME280;56857;52.212;5.496;2023-12-22T01:00:30;100306.94;;;6.35;100.00
69630;BME280;56857;52.212;5.496;2023-12-22T01:02:55;100294.09;;;6.32;100.00
69630;BME280;56857;52.212;5.496;2023-12-22T01:05:21;100309.22;;;6.30;100.00
69630;BME280;56857;52.212;5.496;2023-12-22T01:07:46;100325.00;;;6.30;100.00
69630;BME280;56857;52.212;5.496;2023-12-22T01:10:11;100317.97;;;6.31;100.00
69630;BME280;56857;52.212;5.496;2023-12-22T01:12:37;100306.75;;;6.29;100.00
69630;BME280;56857;52.212;5.496;2023-12-22T01:15:02;100314.47;;;6.30;100.00
69630;BME280;56857;52.212;5.496;2023-12-22T01:17:28;100335.53;;;6.30;100.00
69630;BME280;56857;52.212;5.496;2023-12-22T01:19:53;100334.56;;;6.31;100.00
69630;BME280;56857;52.212;5.496;2023-12-22T01:22:18;100328.31;;;6.32;100.00
69630;BME280;56857;52.212;5.496;2023-12-22T01:24:43;100321.09;;;6.34;100.00
69630;BME280;56857;52.212;5.496;2023-12-22T01:27:09;100339.38;;;6.36;100.00
69630;BME280;56857;52.212;5.496;2023-12-22T01:29:35;100317.31;;;6.37;100.00
69630;BME280;56857;52.212;5.496;2023-12-22T01:32:00;100312.06;;;6.37;100.00
69630;BME280;56857;52.212;5.496;2023-12-22T01:34:26;100323.25;;;6.39;100.00
69630;BME280;56857;52.212;5.496;2023-12-22T01:36:51;100326.72;;;6.39;100.00
69630;BME280;56857;52.212;5.496;2023-12-22T01:39:16;100335.59;;;6.38;100.00
69630;BME280;56857;52.212;5.496;2023-12-22T01:41:42;100314.53;;;6.38;100.00
69630;BME280;56857;52.212;5.496;2023-12-22T01:44:07;100324.25;;;6.38;100.00
69630;BME280;56857;52.212;5.496;2023-12-22T01:46:33;100325.06;;;6.38;100.00
69630;BME280;56857;52.212;5.496;2023-12-22T01:48:59;100320.13;;;6.35;100.00
69630;BME280;56857;52.212;5.496;2023-12-22T01:51:27;100322.75;;;6.35;100.00
69630;BME280;56857;52.212;5.496;2023-12-22T01:53:53;100315.97;;;6.33;100.00
69630;BME280;56857;52.212;5.496;2023-12-22T01:56:18;100320.44;;;6.32;100.00
69630;BME280;56857;52.212;5.496;2023-12-22T01:58:44;100325.00;;;6.30;100.00
69630;BME280;56857;52.212;5.496;2023-12-22T02:01:11;100333.91;;;6.29;100.00
69630;BME280;56857;52.212;5.496;2023-12-22T02:03:37;100333.75;;;6.31;100.00
69630;BME280;56857;52.212;5.496;2023-12-22T02:06:03;100339.97;;;6.30;100.00
69630;BME280;56857;52.212;5.496;2023-12-22T02:08:32;100330.44;;;6.29;100.00
69630;BME280;56857;52.212;5.496;2023-12-22T02:10:57;100330.56;;;6.27;100.00
69630;BME280;56857;52.212;5.496;2023-12-22T02:13:23;100340.16;;;6.28;100.00
69630;BME280;56857;52.212;5.496;2023-12-22T02:15:54;100337.66;;;6.26;100.00
69630;BME280;56857;52.212;5.496;2023-12-22T02:18:30;100336.00;;;6.25;100.00
69630;BME280;56857;52.212;5.496;2023-12-22T02:20:58;100318.72;;;6.23;100.00
69630;BME280;56857;52.212;5.496;2023-12-22T02:23:23;100317.72;;;6.24;100.00
69630;BME280;56857;52.212;5.496;2023-12-22T02:25:55;100307.06;;;6.25;100.00
69630;BME280;56857;52.212;5.496;2023-12-22T02:28:25;100301.78;;;6.25;100.00
69630;BME280;56857;52.212;5.496;2023-12-22T02:31:08;100302.31;;;6.29;100.00
69630;BME280;56857;52.212;5.496;2023-12-22T02:33:36;100299.69;;;6.29;100.00
69630;BME280;56857;52.212;5.496;2023-12-22T02:36:03;100293.28;;;6.32;100.00
69630;BME280;56857;52.212;5.496;2023-12-22T02:38:31;100289.66;;;6.33;100.00
69630;BME280;56857;52.212;5.496;2023-12-22T02:40:58;100277.19;;;6.35;100.00
69630;BME280;56857;52.212;5.496;2023-12-22T02:43:24;100270.91;;;6.36;100.00
69630;BME280;56857;52.212;5.496;2023-12-22T02:45:52;100281.31;;;6.37;100.00
69630;BME280;56857;52.212;5.496;2023-12-22T02:48:17;100308.16;;;6.41;100.00
69630;BME280;56857;52.212;5.496;2023-12-22T02:50:43;100338.91;;;6.40;100.00
69630;BME280;56857;52.212;5.496;2023-12-22T02:53:08;100337.03;;;6.33;100.00
69630;BME280;56857;52.212;5.496;2023-12-22T02:55:35;100313.41;;;6.15;100.00
69630;BME280;56857;52.212;5.496;2023-12-22T02:58:00;100312.31;;;5.99;100.00
69630;BME280;56857;52.212;5.496;2023-12-22T03:00:25;100330.50;;;5.93;100.00
69630;BME280;56857;52.212;5.496;2023-12-22T03:02:51;100333.03;;;5.85;100.00
69630;BME280;56857;52.212;5.496;2023-12-22T03:05:16;100350.69;;;5.74;100.00
69630;BME280;56857;52.212;5.496;2023-12-22T03:07:41;100364.72;;;5.65;100.00
69630;BME280;56857;52.212;5.496;2023-12-22T03:10:07;100347.06;;;5.57;100.00
69630;BME280;56857;52.212;5.496;2023-12-22T03:12:32;100322.56;;;5.57;100.00
69630;BME280;56857;52.212;5.496;2023-12-22T03:14:57;100336.25;;;5.61;100.00
69630;BME280;56857;52.212;5.496;2023-12-22T03:17:23;100343.00;;;5.63;100.00
69630;BME280;56857;52.212;5.496;2023-12-22T03:19:48;100377.06;;;5.65;100.00
69630;BME280;56857;52.212;5.496;2023-12-22T03:22:13;100365.56;;;5.66;100.00
69630;BME280;56857;52.212;5.496;2023-12-22T03:24:39;100375.38;;;5.64;100.00
69630;BME280;56857;52.212;5.496;2023-12-22T03:27:04;100394.91;;;5.61;100.00
69630;BME280;56857;52.212;5.496;2023-12-22T03:29:30;100374.50;;;5.55;100.00
69630;BME280;56857;52.212;5.496;2023-12-22T03:31:55;100367.03;;;5.50;100.00
69630;BME280;56857;52.212;5.496;2023-12-22T03:34:20;100375.09;;;5.49;100.00
69630;BME280;56857;52.212;5.496;2023-12-22T03:36:46;100384.09;;;5.46;100.00
69630;BME280;56857;52.212;5.496;2023-12-22T03:39:11;100381.75;;;5.43;100.00
69630;BME280;56857;52.212;5.496;2023-12-22T03:41:36;100392.09;;;5.45;100.00
69630;BME280;56857;52.212;5.496;2023-12-22T03:44:03;100386.03;;;5.44;100.00
69630;BME280;56857;52.212;5.496;2023-12-22T03:46:28;100371.06;;;5.45;100.00
69630;BME280;56857;52.212;5.496;2023-12-22T03:48:53;100364.88;;;5.46;100.00
69630;BME280;56857;52.212;5.496;2023-12-22T03:51:19;100367.50;;;5.46;100.00
69630;BME280;56857;52.212;5.496;2023-12-22T03:53:44;100368.31;;;5.46;100.00
69630;BME280;56857;52.212;5.496;2023-12-22T03:56:10;100372.59;;;5.47;100.00
69630;BME280;56857;52.212;5.496;2023-12-22T03:58:36;100373.41;;;5.48;100.00
69630;BME280;56857;52.212;5.496;2023-12-22T04:01:01;100373.94;;;5.51;100.00
69630;BME280;56857;52.212;5.496;2023-12-22T04:03:27;100371.88;;;5.55;100.00
69630;BME280;56857;52.212;5.496;2023-12-22T04:05:52;100361.88;;;5.58;100.00
69630;BME280;56857;52.212;5.496;2023-12-22T04:08:17;100361.28;;;5.65;100.00
69630;BME280;56857;52.212;5.496;2023-12-22T04:10:43;100357.50;;;5.67;100.00
69630;BME280;56857;52.212;5.496;2023-12-22T04:13:08;100360.81;;;5.69;100.00
69630;BME280;56857;52.212;5.496;2023-12-22T04:15:33;100361.34;;;5.73;100.00
69630;BME280;56857;52.212;5.496;2023-12-22T04:17:59;100347.25;;;5.74;100.00
69630;BME280;56857;52.212;5.496;2023-12-22T04:20:24;100340.00;;;5.76;100.00
69630;BME280;56857;52.212;5.496;2023-12-22T04:22:49;100357.28;;;5.78;100.00
69630;BME280;56857;52.212;5.496;2023-12-22T04:25:15;100364.88;;;5.81;100.00
69630;BME280;56857;52.212;5.496;2023-12-22T04:27:40;100362.09;;;5.83;100.00
69630;BME280;56857;52.212;5.496;2023-12-22T04:30:06;100380.38;;;5.85;100.00
69630;BME280;56857;52.212;5.496;2023-12-22T04:32:32;100408.84;;;5.89;100.00
69630;BME280;56857;52.212;5.496;2023-12-22T04:34:57;100382.25;;;5.92;100.00
69630;BME280;56857;52.212;5.496;2023-12-22T04:37:22;100387.50;;;5.92;100.00
69630;BME280;56857;52.212;5.496;2023-12-22T04:39:48;100400.38;;;5.95;100.00
69630;BME280;56857;52.212;5.496;2023-12-22T04:42:13;100391.38;;;5.98;100.00
69630;BME280;56857;52.212;5.496;2023-12-22T04:44:38;100392.19;;;5.98;100.00
69630;BME280;56857;52.212;5.496;2023-12-22T04:47:04;100386.63;;;6.01;100.00
69630;BME280;56857;52.212;5.496;2023-12-22T04:49:29;100391.88;;;6.01;100.00
69630;BME280;56857;52.212;5.496;2023-12-22T04:51:54;100388.13;;;6.04;100.00
69630;BME280;56857;52.212;5.496;2023-12-22T04:54:20;100386.03;;;6.08;100.00
69630;BME280;56857;52.212;5.496;2023-12-22T04:56:45;100390.03;;;6.12;100.00
69630;BME280;56857;52.212;5.496;2023-12-22T04:59:10;100389.88;;;6.13;100.00
69630;BME280;56857;52.212;5.496;2023-12-22T05:01:36;100387.75;;;6.17;100.00
69630;BME280;56857;52.212;5.496;2023-12-22T05:04:01;100395.50;;;6.18;100.00
69630;BME280;56857;52.212;5.496;2023-12-22T05:06:26;100392.03;;;6.18;100.00
69630;BME280;56857;52.212;5.496;2023-12-22T05:08:51;100393.53;;;6.20;100.00
69630;BME280;56857;52.212;5.496;2023-12-22T05:11:17;100388.97;;;6.22;100.00
69630;BME280;56857;52.212;5.496;2023-12-22T05:13:42;100387.97;;;6.23;100.00
69630;BME280;56857;52.212;5.496;2023-12-22T05:16:07;100376.63;;;6.23;100.00
69630;BME280;56857;52.212;5.496;2023-12-22T05:18:33;100376.31;;;6.26;100.00
69630;BME280;56857;52.212;5.496;2023-12-22T05:20:58;100359.53;;;6.27;100.00
69630;BME280;56857;52.212;5.496;2023-12-22T05:23:23;100378.94;;;6.26;100.00
69630;BME280;56857;52.212;5.496;2023-12-22T05:25:49;100378.81;;;6.28;100.00
69630;BME280;56857;52.212;5.496;2023-12-22T05:28:14;100375.19;;;6.29;100.00
69630;BME280;56857;52.212;5.496;2023-12-22T05:30:39;100383.09;;;6.29;100.00
69630;BME280;56857;52.212;5.496;2023-12-22T05:33:05;100379.63;;;6.28;100.00
69630;BME280;56857;52.212;5.496;2023-12-22T05:35:30;100375.19;;;6.29;100.00
69630;BME280;56857;52.212;5.496;2023-12-22T05:37:55;100376.00;;;6.29;100.00
69630;BME280;56857;52.212;5.496;2023-12-22T05:40:20;100373.25;;;6.31;100.00
69630;BME280;56857;52.212;5.496;2023-12-22T05:42:46;100371.44;;;6.31;100.00
69630;BME280;56857;52.212;5.496;2023-12-22T05:45:12;100357.13;;;6.34;100.00
69630;BME280;56857;52.212;5.496;2023-12-22T05:47:37;100354.50;;;6.34;100.00
69630;BME280;56857;52.212;5.496;2023-12-22T05:50:03;100359.09;;;6.32;100.00
69630;BME280;56857;52.212;5.496;2023-12-22T05:52:29;100362.53;;;6.32;100.00
69630;BME280;56857;52.212;5.496;2023-12-22T05:54:54;100366.81;;;6.33;100.00
69630;BME280;56857;52.212;5.496;2023-12-22T05:57:20;100374.56;;;6.35;100.00
69630;BME280;56857;52.212;5.496;2023-12-22T05:59:45;100370.94;;;6.36;100.00
69630;BME280;56857;52.212;5.496;2023-12-22T06:02:10;100361.25;;;6.36;100.00
69630;BME280;56857;52.212;5.496;2023-12-22T06:04:37;100362.75;;;6.39;100.00
69630;BME280;56857;52.212;5.496;2023-12-22T06:07:03;100356.66;;;6.38;100.00
69630;BME280;56857;52.212;5.496;2023-12-22T06:09:28;100354.72;;;6.40;100.00
69630;BME280;56857;52.212;5.496;2023-12-22T06:11:53;100352.22;;;6.39;100.00
69630;BME280;56857;52.212;5.496;2023-12-22T06:14:18;100352.09;;;6.40;100.00
69630;BME280;56857;52.212;5.496;2023-12-22T06:16:44;100360.63;;;6.42;100.00
69630;BME280;56857;52.212;5.496;2023-12-22T06:19:09;100355.22;;;6.44;100.00
69630;BME280;56857;52.212;5.496;2023-12-22T06:21:37;100369.91;;;6.46;100.00
69630;BME280;56857;52.212;5.496;2023-12-22T06:24:02;100381.91;;;6.49;100.00
69630;BME280;56857;52.212;5.496;2023-12-22T06:26:28;100370.25;;;6.52;100.00
69630;BME280;56857;52.212;5.496;2023-12-22T06:28:53;100365.78;;;6.52;100.00
69630;BME280;56857;52.212;5.496;2023-12-22T06:31:20;100367.97;;;6.57;100.00
69630;BME280;56857;52.212;5.496;2023-12-22T06:33:47;100369.63;;;6.58;100.00
69630;BME280;56857;52.212;5.496;2023-12-22T06:38:44;100357.78;;;6.62;100.00
69630;BME280;56857;52.212;5.496;2023-12-22T06:41:24;100366.38;;;6.64;100.00
69630;BME280;56857;52.212;5.496;2023-12-22T06:43:50;100364.56;;;6.64;100.00
69630;BME280;56857;52.212;5.496;2023-12-22T06:46:19;100359.81;;;6.68;100.00
69630;BME280;56857;52.212;5.496;2023-12-22T06:48:45;100362.28;;;6.69;100.00
69630;BME280;56857;52.212;5.496;2023-12-22T06:53:42;100356.41;;;6.76;100.00
69630;BME280;56857;52.212;5.496;2023-12-22T06:56:18;100360.69;;;6.77;100.00
69630;BME280;56857;52.212;5.496;2023-12-22T06:58:44;100358.72;;;6.79;100.00
69630;BME280;56857;52.212;5.496;2023-12-22T07:01:11;100358.56;;;6.80;100.00
69630;BME280;56857;52.212;5.496;2023-12-22T07:03:37;100347.88;;;6.82;100.00
69630;BME280;56857;52.212;5.496;2023-12-22T07:06:03;100347.56;;;6.85;100.00
69630;BME280;56857;52.212;5.496;2023-12-22T07:08:28;100349.22;;;6.86;100.00
69630;BME280;56857;52.212;5.496;2023-12-22T07:10:53;100350.84;;;6.87;100.00
69630;BME280;56857;52.212;5.496;2023-12-22T07:13:19;100333.25;;;6.87;100.00
69630;BME280;56857;52.212;5.496;2023-12-22T07:15:44;100339.03;;;6.91;100.00
69630;BME280;56857;52.212;5.496;2023-12-22T07:18:09;100340.69;;;6.92;100.00
69630;BME280;56857;52.212;5.496;2023-12-22T07:20:35;100343.81;;;6.95;100.00
69630;BME280;56857;52.212;5.496;2023-12-22T07:23:00;100348.94;;;6.97;100.00
69630;BME280;56857;52.212;5.496;2023-12-22T07:25:25;100365.41;;;6.99;100.00
69630;BME280;56857;52.212;5.496;2023-12-22T07:27:50;100363.59;;;7.00;100.00
69630;BME280;56857;52.212;5.496;2023-12-22T07:30:16;100362.63;;;7.01;100.00
69630;BME280;56857;52.212;5.496;2023-12-22T07:32:43;100366.91;;;7.02;100.00
69630;BME280;56857;52.212;5.496;2023-12-22T07:35:09;100371.03;;;7.04;100.00
69630;BME280;56857;52.212;5.496;2023-12-22T07:37:35;100357.88;;;7.04;100.00
69630;BME280;56857;52.212;5.496;2023-12-22T07:40:00;100356.88;;;7.05;100.00
69630;BME280;56857;52.212;5.496;2023-12-22T07:42:26;100346.31;;;7.05;100.00
69630;BME280;56857;52.212;5.496;2023-12-22T07:44:51;100351.47;;;7.07;100.00
69630;BME280;56857;52.212;5.496;2023-12-22T07:47:16;100360.88;;;7.09;100.00
69630;BME280;56857;52.212;5.496;2023-12-22T07:49:42;100361.50;;;7.11;100.00
69630;BME280;56857;52.212;5.496;2023-12-22T07:52:07;100369.28;;;7.13;100.00
69630;BME280;56857;52.212;5.496;2023-12-22T07:54:32;100366.47;;;7.14;100.00
69630;BME280;56857;52.212;5.496;2023-12-22T07:56:58;100377.69;;;7.16;100.00
69630;BME280;56857;52.212;5.496;2023-12-22T07:59:23;100391.69;;;7.17;100.00
69630;BME280;56857;52.212;5.496;2023-12-22T08:01:48;100382.97;;;7.16;100.00
69630;BME280;56857;52.212;5.496;2023-12-22T08:04:14;100384.22;;;7.12;100.00
69630;BME280;56857;52.212;5.496;2023-12-22T08:06:39;100386.38;;;7.09;100.00
69630;BME280;56857;52.212;5.496;2023-12-22T08:09:04;100383.91;;;7.07;100.00
69630;BME280;56857;52.212;5.496;2023-12-22T08:11:30;100375.31;;;7.05;100.00
69630;BME280;56857;52.212;5.496;2023-12-22T08:13:55;100384.22;;;7.04;100.00
69630;BME280;56857;52.212;5.496;2023-12-22T08:16:20;100372.03;;;7.03;100.00
69630;BME280;56857;52.212;5.496;2023-12-22T08:18:46;100367.59;;;7.04;100.00
69630;BME280;56857;52.212;5.496;2023-12-22T08:21:11;100370.22;;;7.04;100.00
69630;BME280;56857;52.212;5.496;2023-12-22T08:23:36;100359.50;;;7.05;100.00
69630;BME280;56857;52.212;5.496;2023-12-22T08:26:02;100356.72;;;7.07;100.00
69630;BME280;56857;52.212;5.496;2023-12-22T08:28:27;100343.38;;;7.08;100.00
69630;BME280;56857;52.212;5.496;2023-12-22T08:30:52;100333.66;;;7.09;100.00
69630;BME280;56857;52.212;5.496;2023-12-22T08:33:17;100337.78;;;7.11;100.00
69630;BME280;56857;52.212;5.496;2023-12-22T08:35:43;100335.97;;;7.12;100.00
69630;BME280;56857;52.212;5.496;2023-12-22T08:38:08;100341.91;;;7.14;100.00
69630;BME280;56857;52.212;5.496;2023-12-22T08:40:33;100336.47;;;7.15;100.00
69630;BME280;56857;52.212;5.496;2023-12-22T08:42:59;100339.78;;;7.17;100.00
69630;BME280;56857;52.212;5.496;2023-12-22T08:45:26;100332.56;;;7.19;100.00
69630;BME280;56857;52.212;5.496;2023-12-22T08:47:51;100342.78;;;7.23;100.00
69630;BME280;56857;52.212;5.496;2023-12-22T08:50:16;100338.16;;;7.25;100.00
69630;BME280;56857;52.212;5.496;2023-12-22T08:52:41;100341.47;;;7.27;100.00
69630;BME280;56857;52.212;5.496;2023-12-22T08:55:07;100336.88;;;7.29;100.00
69630;BME280;56857;52.212;5.496;2023-12-22T08:57:32;100330.44;;;7.31;100.00
69630;BME280;56857;52.212;5.496;2023-12-22T08:59:58;100329.28;;;7.34;100.00
69630;BME280;56857;52.212;5.496;2023-12-22T09:02:24;100332.75;;;7.34;100.00
69630;BME280;56857;52.212;5.496;2023-12-22T09:04:50;100329.78;;;7.37;100.00
69630;BME280;56857;52.212;5.496;2023-12-22T09:07:15;100338.22;;;7.41;100.00
69630;BME280;56857;52.212;5.496;2023-12-22T09:09:40;100339.69;;;7.43;100.00
69630;BME280;56857;52.212;5.496;2023-12-22T09:12:06;100347.28;;;7.47;100.00
69630;BME280;56857;52.212;5.496;2023-12-22T09:14:31;100350.41;;;7.50;100.00
69630;BME280;56857;52.212;5.496;2023-12-22T09:16:57;100343.19;;;7.52;100.00
69630;BME280;56857;52.212;5.496;2023-12-22T09:19:22;100341.22;;;7.54;100.00
69630;BME280;56857;52.212;5.496;2023-12-22T09:21:47;100344.19;;;7.59;100.00
69630;BME280;56857;52.212;5.496;2023-12-22T09:24:13;100343.03;;;7.62;100.00
69630;BME280;56857;52.212;5.496;2023-12-22T09:26:38;100350.81;;;7.63;100.00
69630;BME280;56857;52.212;5.496;2023-12-22T09:29:03;100341.88;;;7.64;100.00
69630;BME280;56857;52.212;5.496;2023-12-22T09:31:28;100344.19;;;7.68;100.00
69630;BME280;56857;52.212;5.496;2023-12-22T09:33:54;100340.56;;;7.69;100.00
69630;BME280;56857;52.212;5.496;2023-12-22T09:36:19;100329.88;;;7.70;100.00
69630;BME280;56857;52.212;5.496;2023-12-22T09:38:44;100339.59;;;7.70;100.00
69630;BME280;56857;52.212;5.496;2023-12-22T09:41:10;100345.84;;;7.69;100.00
69630;BME280;56857;52.212;5.496;2023-12-22T09:43:35;100333.66;;;7.68;100.00
69630;BME280;56857;52.212;5.496;2023-12-22T09:46:48;100344.38;;;7.66;100.00
69630;BME280;56857;52.212;5.496;2023-12-22T09:48:52;100325.38;;;7.62;100.00
69630;BME280;56857;52.212;5.496;2023-12-22T09:51:19;100335.44;;;7.59;100.00
69630;BME280;56857;52.212;5.496;2023-12-22T09:53:45;100322.56;;;7.56;100.00
69630;BME280;56857;52.212;5.496;2023-12-22T09:56:11;100327.22;;;7.54;100.00
69630;BME280;56857;52.212;5.496;2023-12-22T09:58:38;100326.22;;;7.55;100.00
69630;BME280;56857;52.212;5.496;2023-12-22T10:01:04;100332.47;;;7.54;100.00
69630;BME280;56857;52.212;5.496;2023-12-22T10:03:30;100331.63;;;7.53;100.00
69630;BME280;56857;52.212;5.496;2023-12-22T10:05:57;100344.69;;;7.55;100.00
69630;BME280;56857;52.212;5.496;2023-12-22T10:08:24;100339.22;;;7.56;100.00
69630;BME280;56857;52.212;5.496;2023-12-22T10:10:50;100349.63;;;7.58;100.00
69630;BME280;56857;52.212;5.496;2023-12-22T10:13:15;100364.31;;;7.60;100.00
69630;BME280;56857;52.212;5.496;2023-12-22T10:15:41;100361.34;;;7.63;100.00
69630;BME280;56857;52.212;5.496;2023-12-22T10:18:09;100358.38;;;7.66;100.00
69630;BME280;56857;52.212;5.496;2023-12-22T10:20:35;100367.44;;;7.72;100.00
69630;BME280;56857;52.212;5.496;2023-12-22T10:23:01;100368.28;;;7.81;100.00
69630;BME280;56857;52.212;5.496;2023-12-22T10:25:29;100366.81;;;7.86;100.00
69630;BME280;56857;52.212;5.496;2023-12-22T10:27:56;100367.00;;;7.93;100.00
69630;BME280;56857;52.212;5.496;2023-12-22T10:30:21;100368.81;;;8.01;100.00
69630;BME280;56857;52.212;5.496;2023-12-22T10:32:50;100358.59;;;8.06;100.00
69630;BME280;56857;52.212;5.496;2023-12-22T10:35:15;100360.75;;;8.10;100.00
69630;BME280;56857;52.212;5.496;2023-12-22T10:37:41;100360.22;;;8.15;100.00
69630;BME280;56857;52.212;5.496;2023-12-22T10:40:08;100358.91;;;8.19;100.00
69630;BME280;56857;52.212;5.496;2023-12-22T10:42:35;100348.81;;;8.23;100.00
69630;BME280;56857;52.212;5.496;2023-12-22T10:45:00;100351.47;;;8.23;100.00
69630;BME280;56857;52.212;5.496;2023-12-22T10:47:26;100354.78;;;8.25;100.00
69630;BME280;56857;52.212;5.496;2023-12-22T10:49:52;100353.63;;;8.27;100.00
69630;BME280;56857;52.212;5.496;2023-12-22T10:52:18;100356.94;;;8.29;100.00
69630;BME280;56857;52.212;5.496;2023-12-22T10:54:43;100351.47;;;8.31;100.00
69630;BME280;56857;52.212;5.496;2023-12-22T10:57:13;100346.03;;;8.32;100.00
69630;BME280;56857;52.212;5.496;2023-12-22T10:59:45;100350.16;;;8.35;100.00
69630;BME280;56857;52.212;5.496;2023-12-22T11:02:18;100340.25;;;8.37;100.00
69630;BME280;56857;52.212;5.496;2023-12-22T11:04:59;100346.34;;;8.38;100.00
69630;BME280;56857;52.212;5.496;2023-12-22T11:07:27;100345.91;;;8.42;100.00
69630;BME280;56857;52.212;5.496;2023-12-22T11:09:56;100345.56;;;8.45;100.00
69630;BME280;56857;52.212;5.496;2023-12-22T11:12:27;100351.66;;;8.46;100.00
69630;BME280;56857;52.212;5.496;2023-12-22T11:14:54;100341.75;;;8.48;100.00
69630;BME280;56857;52.212;5.496;2023-12-22T11:17:20;100344.22;;;8.49;100.00
69630;BME280;56857;52.212;5.496;2023-12-22T11:19:48;100351.00;;;8.52;100.00
69630;BME280;56857;52.212;5.496;2023-12-22T11:22:16;100325.41;;;8.52;100.00
69630;BME280;56857;52.212;5.496;2023-12-22T11:24:43;100323.56;;;8.53;100.00
69630;BME280;56857;52.212;5.496;2023-12-22T11:27:11;100336.44;;;8.56;100.00
69630;BME280;56857;52.212;5.496;2023-12-22T11:29:39;100330.00;;;8.58;100.00
69630;BME280;56857;52.212;5.496;2023-12-22T11:32:06;100327.03;;;8.62;100.00
69630;BME280;56857;52.212;5.496;2023-12-22T11:34:33;100322.56;;;8.62;100.00
69630;BME280;56857;52.212;5.496;2023-12-22T11:37:03;100315.31;;;8.64;100.00
69630;BME280;56857;52.212;5.496;2023-12-22T11:39:29;100319.41;;;8.67;100.00
69630;BME280;56857;52.212;5.496;2023-12-22T11:41:55;100312.13;;;8.69;100.00
69630;BME280;56857;52.212;5.496;2023-12-22T11:44:21;100317.09;;;8.72;100.00
69630;BME280;56857;52.212;5.496;2023-12-22T11:46:47;100313.28;;;8.74;100.00
69630;BME280;56857;52.212;5.496;2023-12-22T11:49:12;100305.16;;;8.76;100.00
69630;BME280;56857;52.212;5.496;2023-12-22T11:51:38;100313.75;;;8.78;100.00
69630;BME280;56857;52.212;5.496;2023-12-22T11:54:04;100302.19;;;8.79;100.00
69630;BME280;56857;52.212;5.496;2023-12-22T11:56:49;100303.00;;;8.79;100.00
69630;BME280;56857;52.212;5.496;2023-12-22T11:59:16;100296.91;;;8.79;100.00
69630;BME280;56857;52.212;5.496;2023-12-22T12:01:41;100303.38;;;8.76;100.00
69630;BME280;56857;52.212;5.496;2023-12-22T12:04:07;100293.97;;;8.74;100.00
69630;BME280;56857;52.212;5.496;2023-12-22T12:06:33;100289.66;;;8.73;100.00
69630;BME280;56857;52.212;5.496;2023-12-22T12:09:06;100286.03;;;8.74;100.00
69630;BME280;56857;52.212;5.496;2023-12-22T12:14:29;100274.00;;;8.71;100.00
69630;BME280;56857;52.212;5.496;2023-12-22T12:17:15;100268.56;;;8.65;100.00
69630;BME280;56857;52.212;5.496;2023-12-22T12:19:41;100267.91;;;8.63;100.00
69630;BME280;56857;52.212;5.496;2023-12-22T12:22:07;100269.06;;;8.60;100.00
69630;BME280;56857;52.212;5.496;2023-12-22T12:24:32;100265.13;;;8.56;100.00
69630;BME280;56857;52.212;5.496;2023-12-22T12:26:58;100257.38;;;8.54;100.00
69630;BME280;56857;52.212;5.496;2023-12-22T12:29:23;100257.38;;;8.54;100.00
69630;BME280;56857;52.212;5.496;2023-12-22T12:31:50;100265.13;;;8.56;100.00
69630;BME280;56857;52.212;5.496;2023-12-22T12:34:16;100257.03;;;8.57;100.00
69630;BME280;56857;52.212;5.496;2023-12-22T12:36:42;100254.88;;;8.61;100.00
69630;BME280;56857;52.212;5.496;2023-12-22T12:39:08;100258.81;;;8.65;100.00
69630;BME280;56857;52.212;5.496;2023-12-22T12:41:40;100255.16;;;8.66;100.00
69630;BME280;56857;52.212;5.496;2023-12-22T12:44:07;100254.00;;;8.69;100.00
69630;BME280;56857;52.212;5.496;2023-12-22T12:49:03;100259.78;;;8.72;100.00
69630;BME280;56857;52.212;5.496;2023-12-22T12:51:29;100271.00;;;8.74;100.00
69630;BME280;56857;52.212;5.496;2023-12-22T12:53:55;100279.59;;;8.76;100.00
69630;BME280;56857;52.212;5.496;2023-12-22T12:56:21;100264.38;;;8.78;100.00